sensor_id;sensor_type;location;lat;lon;timestamp;temperature;humidity
11666;DHT22;5889;51.350;6.708;2022-09-20T00:02:20;11.40;99.90
11666;DHT22;5889;51.350;6.708;2022-09-20T00:04:47;11.40;99.90
11666;DHT22;5889;51.350;6.708;2022-09-20T00:07:14;11.50;99.90
11666;DHT22;5889;51.350;6.708;2022-09-20T00:09:42;11.40;99.90
11666;DHT22;5889;51.350;6.708;2022-09-20T00:12:09;11.50;99.90
11666;DHT22;5889;51.350;6.708;2022-09-20T00:14:36;11.50;99.90
11666;DHT22;5889;51.350;6.708;2022-09-20T00:17:03;11.40;99.90
11666;DHT22;5889;51.350;6.708;2022-09-20T00:19:30;11.50;99.90
11666;DHT22;5889;51.350;6.708;2022-09-20T00:21:57;11.50;99.90
11666;DHT22;5889;51.350;6.708;2022-09-20T00:24:24;11.50;99.90
11666;DHT22;5889;51.350;6.708;2022-09-20T00:26:52;11.50;99.90
11666;DHT22;5889;51.350;6.708;2022-09-20T00:29:20;11.50;99.90
11666;DHT22;5889;51.350;6.708;2022-09-20T00:31:47;11.60;99.90
11666;DHT22;5889;51.350;6.708;2022-09-20T00:34:15;11.60;99.90
11666;DHT22;5889;51.350;6.708;2022-09-20T00:36:59;11.60;99.90
11666;DHT22;5889;51.350;6.708;2022-09-20T00:39:26;11.60;99.90
11666;DHT22;5889;51.350;6.708;2022-09-20T00:41:54;11.60;99.90
11666;DHT22;5889;51.350;6.708;2022-09-20T00:47:23;11.60;99.90
11666;DHT22;5889;51.350;6.708;2022-09-20T00:49:53;11.60;99.90
11666;DHT22;5889;51.350;6.708;2022-09-20T00:52:22;11.70;99.90
11666;DHT22;5889;51.350;6.708;2022-09-20T00:54:50;11.70;99.90
11666;DHT22;5889;51.350;6.708;2022-09-20T00:57:18;11.70;99.90
11666;DHT22;5889;51.350;6.708;2022-09-20T00:59:47;11.70;99.90
11666;DHT22;5889;51.350;6.708;2022-09-20T01:02:19;11.70;99.90
11666;DHT22;5889;51.350;6.708;2022-09-20T01:04:47;11.70;99.90
11666;DHT22;5889;51.350;6.708;2022-09-20T01:07:17;11.70;99.90
11666;DHT22;5889;51.350;6.708;2022-09-20T01:09:46;11.70;99.90
11666;DHT22;5889;51.350;6.708;2022-09-20T01:12:17;11.70;99.90
11666;DHT22;5889;51.350;6.708;2022-09-20T01:14:48;11.70;99.90
11666;DHT22;5889;51.350;6.708;2022-09-20T01:17:17;11.70;99.90
11666;DHT22;5889;51.350;6.708;2022-09-20T01:19:51;11.70;99.90
11666;DHT22;5889;51.350;6.708;2022-09-20T01:22:24;11.70;99.90
11666;DHT22;5889;51.350;6.708;2022-09-20T01:24:59;11.70;99.90
11666;DHT22;5889;51.350;6.708;2022-09-20T01:27:43;11.60;99.90
11666;DHT22;5889;51.350;6.708;2022-09-20T01:30:13;11.60;99.90
11666;DHT22;5889;51.350;6.708;2022-09-20T01:35:49;11.60;99.90
11666;DHT22;5889;51.350;6.708;2022-09-20T01:38:28;11.60;99.90
11666;DHT22;5889;51.350;6.708;2022-09-20T01:41:04;11.60;99.90
11666;DHT22;5889;51.350;6.708;2022-09-20T01:43:37;11.60;99.90
11666;DHT22;5889;51.350;6.708;2022-09-20T01:46:17;11.60;99.90
11666;DHT22;5889;51.350;6.708;2022-09-20T01:48:49;11.60;99.90
11666;DHT22;5889;51.350;6.708;2022-09-20T01:51:36;11.60;99.90
11666;DHT22;5889;51.350;6.708;2022-09-20T01:54:42;11.60;99.90
11666;DHT22;5889;51.350;6.708;2022-09-20T01:57:31;11.60;99.90
11666;DHT22;5889;51.350;6.708;2022-09-20T02:00:17;11.60;99.90
11666;DHT22;5889;51.350;6.708;2022-09-20T02:03:17;11.70;99.90
11666;DHT22;5889;51.350;6.708;2022-09-20T02:06:17;11.70;99.90
11666;DHT22;5889;51.350;6.708;2022-09-20T02:09:20;11.70;99.90
11666;DHT22;5889;51.350;6.708;2022-09-20T02:12:17;11.60;99.90
11666;DHT22;5889;51.350;6.708;2022-09-20T02:14:56;11.60;99.90
11666;DHT22;5889;51.350;6.708;2022-09-20T02:17:34;11.60;99.90
11666;DHT22;5889;51.350;6.708;2022-09-20T02:20:12;11.60;99.90
11666;DHT22;5889;51.350;6.708;2022-09-20T02:23:01;11.60;99.90
11666;DHT22;5889;51.350;6.708;2022-09-20T02:25:48;11.60;99.90
11666;DHT22;5889;51.350;6.708;2022-09-20T02:28:25;11.70;99.90
11666;DHT22;5889;51.350;6.708;2022-09-20T02:30:58;11.70;99.90
11666;DHT22;5889;51.350;6.708;2022-09-20T02:33:56;11.60;99.90
11666;DHT22;5889;51.350;6.708;2022-09-20T02:36:36;11.70;99.90
11666;DHT22;5889;51.350;6.708;2022-09-20T02:39:10;11.70;99.90
11666;DHT22;5889;51.350;6.708;2022-09-20T02:41:53;11.70;99.90
11666;DHT22;5889;51.350;6.708;2022-09-20T02:47:14;11.70;99.90
11666;DHT22;5889;51.350;6.708;2022-09-20T02:49:56;11.70;99.90
11666;DHT22;5889;51.350;6.708;2022-09-20T02:52:30;11.70;99.90
11666;DHT22;5889;51.350;6.708;2022-09-20T02:55:06;11.70;99.90
11666;DHT22;5889;51.350;6.708;2022-09-20T02:57:41;11.70;99.90
11666;DHT22;5889;51.350;6.708;2022-09-20T03:00:13;11.80;99.90
11666;DHT22;5889;51.350;6.708;2022-09-20T03:02:49;11.80;99.90
11666;DHT22;5889;51.350;6.708;2022-09-20T03:05:23;11.80;99.90
11666;DHT22;5889;51.350;6.708;2022-09-20T03:08:03;11.80;99.90
11666;DHT22;5889;51.350;6.708;2022-09-20T03:10:36;11.80;99.90
11666;DHT22;5889;51.350;6.708;2022-09-20T03:13:14;11.80;99.90
11666;DHT22;5889;51.350;6.708;2022-09-20T03:15:54;11.80;99.90
11666;DHT22;5889;51.350;6.708;2022-09-20T03:18:32;11.80;99.90
11666;DHT22;5889;51.350;6.708;2022-09-20T03:21:08;11.80;99.90
11666;DHT22;5889;51.350;6.708;2022-09-20T03:23:47;11.80;99.90
11666;DHT22;5889;51.350;6.708;2022-09-20T03:26:25;11.80;99.90
11666;DHT22;5889;51.350;6.708;2022-09-20T03:29:02;11.70;99.90
11666;DHT22;5889;51.350;6.708;2022-09-20T03:31:39;11.70;99.90
11666;DHT22;5889;51.350;6.708;2022-09-20T03:34:20;11.70;99.90
11666;DHT22;5889;51.350;6.708;2022-09-20T03:37:05;11.70;99.90
11666;DHT22;5889;51.350;6.708;2022-09-20T03:40:04;11.70;99.90
11666;DHT22;5889;51.350;6.708;2022-09-20T03:42:39;11.60;99.90
11666;DHT22;5889;51.350;6.708;2022-09-20T03:45:39;11.60;99.90
11666;DHT22;5889;51.350;6.708;2022-09-20T03:48:37;11.60;99.90
11666;DHT22;5889;51.350;6.708;2022-09-20T03:51:20;11.60;99.90
11666;DHT22;5889;51.350;6.708;2022-09-20T03:54:13;11.60;99.90
11666;DHT22;5889;51.350;6.708;2022-09-20T03:57:14;11.60;99.90
11666;DHT22;5889;51.350;6.708;2022-09-20T04:00:03;11.60;99.90
11666;DHT22;5889;51.350;6.708;2022-09-20T04:02:58;11.60;99.90
11666;DHT22;5889;51.350;6.708;2022-09-20T04:05:34;11.60;99.90
11666;DHT22;5889;51.350;6.708;2022-09-20T04:08:11;11.60;99.90
11666;DHT22;5889;51.350;6.708;2022-09-20T04:10:53;11.60;99.90
11666;DHT22;5889;51.350;6.708;2022-09-20T04:13:33;11.60;99.90
11666;DHT22;5889;51.350;6.708;2022-09-20T04:16:13;11.60;99.90
11666;DHT22;5889;51.350;6.708;2022-09-20T04:18:49;11.60;99.90
11666;DHT22;5889;51.350;6.708;2022-09-20T04:21:24;11.60;99.90
11666;DHT22;5889;51.350;6.708;2022-09-20T04:23:58;11.60;99.90
11666;DHT22;5889;51.350;6.708;2022-09-20T04:26:29;11.60;99.90
11666;DHT22;5889;51.350;6.708;2022-09-20T04:29:01;11.60;99.90
11666;DHT22;5889;51.350;6.708;2022-09-20T04:31:36;11.60;99.90
11666;DHT22;5889;51.350;6.708;2022-09-20T04:34:12;11.60;99.90
11666;DHT22;5889;51.350;6.708;2022-09-20T04:36:59;11.60;99.90
11666;DHT22;5889;51.350;6.708;2022-09-20T04:39:37;11.60;99.90
11666;DHT22;5889;51.350;6.708;2022-09-20T04:45:54;11.60;99.90
11666;DHT22;5889;51.350;6.708;2022-09-20T04:48:44;11.60;99.90
11666;DHT22;5889;51.350;6.708;2022-09-20T05:00:31;11.50;99.90
11666;DHT22;5889;51.350;6.708;2022-09-20T05:03:29;11.50;99.90
11666;DHT22;5889;51.350;6.708;2022-09-20T05:06:26;11.50;99.90
11666;DHT22;5889;51.350;6.708;2022-09-20T05:12:47;11.50;99.90
11666;DHT22;5889;51.350;6.708;2022-09-20T05:15:31;11.50;99.90
11666;DHT22;5889;51.350;6.708;2022-09-20T05:18:30;11.60;99.90
11666;DHT22;5889;51.350;6.708;2022-09-20T05:21:12;11.60;99.90
11666;DHT22;5889;51.350;6.708;2022-09-20T05:23:59;11.50;99.90
11666;DHT22;5889;51.350;6.708;2022-09-20T05:26:39;11.50;99.90
11666;DHT22;5889;51.350;6.708;2022-09-20T05:29:13;11.50;99.90
11666;DHT22;5889;51.350;6.708;2022-09-20T05:31:48;11.50;99.90
11666;DHT22;5889;51.350;6.708;2022-09-20T05:34:26;11.50;99.90
11666;DHT22;5889;51.350;6.708;2022-09-20T05:37:03;11.50;99.90
11666;DHT22;5889;51.350;6.708;2022-09-20T05:39:37;11.60;99.90
11666;DHT22;5889;51.350;6.708;2022-09-20T05:42:16;11.50;99.90
11666;DHT22;5889;51.350;6.708;2022-09-20T05:44:56;11.50;99.90
11666;DHT22;5889;51.350;6.708;2022-09-20T05:47:33;11.50;99.90
11666;DHT22;5889;51.350;6.708;2022-09-20T05:50:23;11.60;99.90
11666;DHT22;5889;51.350;6.708;2022-09-20T05:52:56;11.60;99.90
11666;DHT22;5889;51.350;6.708;2022-09-20T05:58:27;11.70;99.90
11666;DHT22;5889;51.350;6.708;2022-09-20T06:01:02;11.70;99.90
11666;DHT22;5889;51.350;6.708;2022-09-20T06:03:35;11.70;99.90
11666;DHT22;5889;51.350;6.708;2022-09-20T06:06:12;11.70;99.90
11666;DHT22;5889;51.350;6.708;2022-09-20T06:11:56;11.80;99.90
11666;DHT22;5889;51.350;6.708;2022-09-20T06:14:36;11.80;99.90
11666;DHT22;5889;51.350;6.708;2022-09-20T06:17:14;11.80;99.90
11666;DHT22;5889;51.350;6.708;2022-09-20T06:19:45;11.80;99.90
11666;DHT22;5889;51.350;6.708;2022-09-20T06:22:21;11.80;99.90
11666;DHT22;5889;51.350;6.708;2022-09-20T06:24:55;11.80;99.90
11666;DHT22;5889;51.350;6.708;2022-09-20T06:27:28;11.80;99.90
11666;DHT22;5889;51.350;6.708;2022-09-20T06:30:00;11.80;99.90
11666;DHT22;5889;51.350;6.708;2022-09-20T06:32:28;11.80;99.90
11666;DHT22;5889;51.350;6.708;2022-09-20T06:34:55;11.80;99.90
11666;DHT22;5889;51.350;6.708;2022-09-20T06:37:41;11.80;99.90
11666;DHT22;5889;51.350;6.708;2022-09-20T06:40:36;11.80;99.90
11666;DHT22;5889;51.350;6.708;2022-09-20T06:43:22;11.80;99.90
11666;DHT22;5889;51.350;6.708;2022-09-20T06:45:48;11.80;99.90
11666;DHT22;5889;51.350;6.708;2022-09-20T06:48:15;11.90;99.90
11666;DHT22;5889;51.350;6.708;2022-09-20T06:50:44;12.00;99.90
11666;DHT22;5889;51.350;6.708;2022-09-20T06:53:15;12.10;99.90
11666;DHT22;5889;51.350;6.708;2022-09-20T06:55:44;12.20;99.90
11666;DHT22;5889;51.350;6.708;2022-09-20T06:58:11;12.30;99.90
11666;DHT22;5889;51.350;6.708;2022-09-20T07:00:38;12.40;99.90
11666;DHT22;5889;51.350;6.708;2022-09-20T07:03:06;12.50;99.90
11666;DHT22;5889;51.350;6.708;2022-09-20T07:05:33;12.50;99.90
11666;DHT22;5889;51.350;6.708;2022-09-20T07:08:01;12.60;99.90
11666;DHT22;5889;51.350;6.708;2022-09-20T07:10:31;12.60;99.90
11666;DHT22;5889;51.350;6.708;2022-09-20T07:12:59;12.60;99.90
11666;DHT22;5889;51.350;6.708;2022-09-20T07:15:26;12.70;99.90
11666;DHT22;5889;51.350;6.708;2022-09-20T07:17:54;12.70;99.90
11666;DHT22;5889;51.350;6.708;2022-09-20T07:20:21;12.70;99.90
11666;DHT22;5889;51.350;6.708;2022-09-20T07:22:48;12.80;99.90
11666;DHT22;5889;51.350;6.708;2022-09-20T07:25:16;12.90;99.90
11666;DHT22;5889;51.350;6.708;2022-09-20T07:27:45;13.00;99.90
11666;DHT22;5889;51.350;6.708;2022-09-20T07:30:13;13.20;99.90
11666;DHT22;5889;51.350;6.708;2022-09-20T07:32:40;13.30;99.90
11666;DHT22;5889;51.350;6.708;2022-09-20T07:35:08;13.30;99.90
11666;DHT22;5889;51.350;6.708;2022-09-20T07:37:35;13.40;99.90
11666;DHT22;5889;51.350;6.708;2022-09-20T07:40:02;13.40;99.90
11666;DHT22;5889;51.350;6.708;2022-09-20T07:42:30;13.40;99.90
11666;DHT22;5889;51.350;6.708;2022-09-20T07:44:58;13.40;99.90
11666;DHT22;5889;51.350;6.708;2022-09-20T07:47:27;13.50;99.90
11666;DHT22;5889;51.350;6.708;2022-09-20T07:49:56;13.70;99.90
11666;DHT22;5889;51.350;6.708;2022-09-20T07:52:23;13.80;99.90
11666;DHT22;5889;51.350;6.708;2022-09-20T07:54:50;13.80;99.90
11666;DHT22;5889;51.350;6.708;2022-09-20T07:57:17;13.80;99.90
11666;DHT22;5889;51.350;6.708;2022-09-20T07:59:44;13.70;99.90
11666;DHT22;5889;51.350;6.708;2022-09-20T08:02:14;13.70;99.90
11666;DHT22;5889;51.350;6.708;2022-09-20T08:04:41;13.80;99.90
11666;DHT22;5889;51.350;6.708;2022-09-20T08:07:08;13.80;99.90
11666;DHT22;5889;51.350;6.708;2022-09-20T08:09:37;13.80;99.90
11666;DHT22;5889;51.350;6.708;2022-09-20T08:12:04;13.70;99.90
11666;DHT22;5889;51.350;6.708;2022-09-20T08:14:42;13.70;99.90
11666;DHT22;5889;51.350;6.708;2022-09-20T08:17:09;13.80;99.90
11666;DHT22;5889;51.350;6.708;2022-09-20T08:19:37;13.80;99.90
11666;DHT22;5889;51.350;6.708;2022-09-20T08:22:05;13.70;99.90
11666;DHT22;5889;51.350;6.708;2022-09-20T08:24:32;13.60;99.90
11666;DHT22;5889;51.350;6.708;2022-09-20T08:26:59;13.60;99.90
11666;DHT22;5889;51.350;6.708;2022-09-20T08:29:25;13.80;99.90
11666;DHT22;5889;51.350;6.708;2022-09-20T08:31:52;13.90;99.90
11666;DHT22;5889;51.350;6.708;2022-09-20T08:34:23;14.00;99.90
11666;DHT22;5889;51.350;6.708;2022-09-20T08:36:51;14.10;99.90
11666;DHT22;5889;51.350;6.708;2022-09-20T08:39:21;14.20;99.90
11666;DHT22;5889;51.350;6.708;2022-09-20T08:41:53;14.30;99.90
11666;DHT22;5889;51.350;6.708;2022-09-20T08:44:25;14.50;99.90
11666;DHT22;5889;51.350;6.708;2022-09-20T08:47:02;14.70;99.90
11666;DHT22;5889;51.350;6.708;2022-09-20T08:49:31;14.90;99.90
11666;DHT22;5889;51.350;6.708;2022-09-20T08:52:01;15.00;99.90
11666;DHT22;5889;51.350;6.708;2022-09-20T08:54:30;14.90;99.90
11666;DHT22;5889;51.350;6.708;2022-09-20T08:57:01;14.90;99.90
11666;DHT22;5889;51.350;6.708;2022-09-20T08:59:32;15.00;99.90
11666;DHT22;5889;51.350;6.708;2022-09-20T09:01:59;14.90;99.90
11666;DHT22;5889;51.350;6.708;2022-09-20T09:04:33;14.90;99.90
11666;DHT22;5889;51.350;6.708;2022-09-20T09:07:02;14.90;99.90
11666;DHT22;5889;51.350;6.708;2022-09-20T09:09:31;14.80;99.90
11666;DHT22;5889;51.350;6.708;2022-09-20T09:12:02;14.80;99.90
11666;DHT22;5889;51.350;6.708;2022-09-20T09:14:30;14.80;99.90
11666;DHT22;5889;51.350;6.708;2022-09-20T09:17:13;14.80;99.90
11666;DHT22;5889;51.350;6.708;2022-09-20T09:19:45;14.90;99.90
11666;DHT22;5889;51.350;6.708;2022-09-20T09:22:21;15.00;99.90
11666;DHT22;5889;51.350;6.708;2022-09-20T09:27:53;15.10;99.90
11666;DHT22;5889;51.350;6.708;2022-09-20T09:30:24;15.00;99.90
11666;DHT22;5889;51.350;6.708;2022-09-20T09:32:53;15.10;99.90
11666;DHT22;5889;51.350;6.708;2022-09-20T09:35:39;15.20;99.90
11666;DHT22;5889;51.350;6.708;2022-09-20T09:38:16;15.30;99.90
11666;DHT22;5889;51.350;6.708;2022-09-20T09:40:49;15.30;99.90
11666;DHT22;5889;51.350;6.708;2022-09-20T09:43:20;15.30;99.90
11666;DHT22;5889;51.350;6.708;2022-09-20T09:45:51;15.20;99.90
11666;DHT22;5889;51.350;6.708;2022-09-20T09:48:21;15.00;99.90
11666;DHT22;5889;51.350;6.708;2022-09-20T09:50:49;15.00;99.90
11666;DHT22;5889;51.350;6.708;2022-09-20T09:53:21;14.90;99.90
11666;DHT22;5889;51.350;6.708;2022-09-20T09:56:02;14.90;99.90
11666;DHT22;5889;51.350;6.708;2022-09-20T09:58:46;14.90;99.90
11666;DHT22;5889;51.350;6.708;2022-09-20T10:01:28;14.90;99.90
11666;DHT22;5889;51.350;6.708;2022-09-20T10:04:02;14.90;99.90
11666;DHT22;5889;51.350;6.708;2022-09-20T10:06:36;14.70;99.90
11666;DHT22;5889;51.350;6.708;2022-09-20T10:09:29;14.60;99.90
11666;DHT22;5889;51.350;6.708;2022-09-20T10:12:08;14.40;99.90
11666;DHT22;5889;51.350;6.708;2022-09-20T10:14:47;14.30;99.90
11666;DHT22;5889;51.350;6.708;2022-09-20T10:17:28;14.30;99.90
11666;DHT22;5889;51.350;6.708;2022-09-20T10:20:19;14.30;99.90
11666;DHT22;5889;51.350;6.708;2022-09-20T10:22:52;14.40;99.90
11666;DHT22;5889;51.350;6.708;2022-09-20T10:25:33;14.50;99.90
11666;DHT22;5889;51.350;6.708;2022-09-20T10:28:14;14.50;99.90
11666;DHT22;5889;51.350;6.708;2022-09-20T10:30:54;14.50;99.90
11666;DHT22;5889;51.350;6.708;2022-09-20T10:33:34;14.60;99.90
11666;DHT22;5889;51.350;6.708;2022-09-20T10:36:13;14.60;99.90
11666;DHT22;5889;51.350;6.708;2022-09-20T10:38:44;14.70;99.90
11666;DHT22;5889;51.350;6.708;2022-09-20T10:41:28;14.80;99.90
11666;DHT22;5889;51.350;6.708;2022-09-20T10:44:42;14.90;99.90
11666;DHT22;5889;51.350;6.708;2022-09-20T10:47:15;15.00;99.90
11666;DHT22;5889;51.350;6.708;2022-09-20T10:49:48;15.00;99.90
11666;DHT22;5889;51.350;6.708;2022-09-20T10:52:46;15.10;99.90
11666;DHT22;5889;51.350;6.708;2022-09-20T10:55:25;15.20;99.90
11666;DHT22;5889;51.350;6.708;2022-09-20T10:58:17;15.30;99.90
11666;DHT22;5889;51.350;6.708;2022-09-20T11:00:54;15.40;99.90
11666;DHT22;5889;51.350;6.708;2022-09-20T11:03:37;15.40;99.90
11666;DHT22;5889;51.350;6.708;2022-09-20T11:06:15;15.40;99.90
11666;DHT22;5889;51.350;6.708;2022-09-20T11:08:46;15.40;99.90
11666;DHT22;5889;51.350;6.708;2022-09-20T11:11:18;15.40;99.90
11666;DHT22;5889;51.350;6.708;2022-09-20T11:13:55;15.60;99.90
11666;DHT22;5889;51.350;6.708;2022-09-20T11:16:27;15.80;99.90
11666;DHT22;5889;51.350;6.708;2022-09-20T11:18:58;16.00;99.90
11666;DHT22;5889;51.350;6.708;2022-09-20T11:21:31;16.10;99.90
11666;DHT22;5889;51.350;6.708;2022-09-20T11:24:03;16.30;99.90
11666;DHT22;5889;51.350;6.708;2022-09-20T11:26:35;16.50;99.90
11666;DHT22;5889;51.350;6.708;2022-09-20T11:29:20;16.80;99.90
11666;DHT22;5889;51.350;6.708;2022-09-20T11:31:54;16.70;99.90
11666;DHT22;5889;51.350;6.708;2022-09-20T11:34:26;16.80;99.90
11666;DHT22;5889;51.350;6.708;2022-09-20T11:36:57;16.80;99.90
11666;DHT22;5889;51.350;6.708;2022-09-20T11:39:29;16.70;99.50
11666;DHT22;5889;51.350;6.708;2022-09-20T11:42:02;16.50;99.60
11666;DHT22;5889;51.350;6.708;2022-09-20T11:44:31;16.20;99.90
11666;DHT22;5889;51.350;6.708;2022-09-20T11:47:05;16.00;99.90
11666;DHT22;5889;51.350;6.708;2022-09-20T11:49:47;15.80;99.90
11666;DHT22;5889;51.350;6.708;2022-09-20T11:52:38;15.80;99.90
11666;DHT22;5889;51.350;6.708;2022-09-20T11:55:19;15.90;99.90
11666;DHT22;5889;51.350;6.708;2022-09-20T11:58:05;16.00;99.90
11666;DHT22;5889;51.350;6.708;2022-09-20T12:00:35;16.20;99.90
11666;DHT22;5889;51.350;6.708;2022-09-20T12:03:04;16.40;99.90
11666;DHT22;5889;51.350;6.708;2022-09-20T12:05:35;16.40;99.90
11666;DHT22;5889;51.350;6.708;2022-09-20T12:08:06;16.30;99.90
11666;DHT22;5889;51.350;6.708;2022-09-20T12:10:36;16.10;99.90
11666;DHT22;5889;51.350;6.708;2022-09-20T12:13:06;16.20;99.90
11666;DHT22;5889;51.350;6.708;2022-09-20T12:15:37;16.20;99.80
11666;DHT22;5889;51.350;6.708;2022-09-20T12:21:05;16.50;99.20
11666;DHT22;5889;51.350;6.708;2022-09-20T12:24:14;16.50;99.70
11666;DHT22;5889;51.350;6.708;2022-09-20T12:26:52;16.50;97.80
11666;DHT22;5889;51.350;6.708;2022-09-20T12:30:02;16.60;98.90
11666;DHT22;5889;51.350;6.708;2022-09-20T12:32:43;16.50;98.10
11666;DHT22;5889;51.350;6.708;2022-09-20T12:38:37;16.90;96.90
11666;DHT22;5889;51.350;6.708;2022-09-20T12:41:10;16.90;97.80
11666;DHT22;5889;51.350;6.708;2022-09-20T12:46:41;16.90;96.90
11666;DHT22;5889;51.350;6.708;2022-09-20T12:49:25;16.90;96.30
11666;DHT22;5889;51.350;6.708;2022-09-20T12:52:28;17.00;96.50
11666;DHT22;5889;51.350;6.708;2022-09-20T12:55:27;16.80;96.80
11666;DHT22;5889;51.350;6.708;2022-09-20T12:57:57;16.80;95.90
11666;DHT22;5889;51.350;6.708;2022-09-20T13:00:32;16.90;95.50
11666;DHT22;5889;51.350;6.708;2022-09-20T13:03:11;16.90;96.20
11666;DHT22;5889;51.350;6.708;2022-09-20T13:05:42;16.80;97.20
11666;DHT22;5889;51.350;6.708;2022-09-20T13:08:15;16.70;96.50
11666;DHT22;5889;51.350;6.708;2022-09-20T13:10:46;16.70;96.80
11666;DHT22;5889;51.350;6.708;2022-09-20T13:13:31;16.70;96.60
11666;DHT22;5889;51.350;6.708;2022-09-20T13:16:01;16.50;96.00
11666;DHT22;5889;51.350;6.708;2022-09-20T13:18:30;16.60;96.20
11666;DHT22;5889;51.350;6.708;2022-09-20T13:20:59;16.60;96.60
11666;DHT22;5889;51.350;6.708;2022-09-20T13:23:31;16.80;98.30
11666;DHT22;5889;51.350;6.708;2022-09-20T13:26:01;16.80;97.50
11666;DHT22;5889;51.350;6.708;2022-09-20T13:28:33;16.70;97.80
11666;DHT22;5889;51.350;6.708;2022-09-20T13:31:22;16.80;99.50
11666;DHT22;5889;51.350;6.708;2022-09-20T13:33:50;16.80;99.90
11666;DHT22;5889;51.350;6.708;2022-09-20T13:36:24;16.60;99.90
11666;DHT22;5889;51.350;6.708;2022-09-20T13:38:54;16.60;99.80
11666;DHT22;5889;51.350;6.708;2022-09-20T13:41:22;16.80;99.30
11666;DHT22;5889;51.350;6.708;2022-09-20T13:43:53;16.90;99.10
11666;DHT22;5889;51.350;6.708;2022-09-20T13:46:23;17.00;99.50
11666;DHT22;5889;51.350;6.708;2022-09-20T13:49:08;16.90;99.30
11666;DHT22;5889;51.350;6.708;2022-09-20T13:51:39;16.50;99.20
11666;DHT22;5889;51.350;6.708;2022-09-20T13:54:26;16.20;99.90
11666;DHT22;5889;51.350;6.708;2022-09-20T13:56:56;16.10;99.90
11666;DHT22;5889;51.350;6.708;2022-09-20T13:59:26;16.10;99.60
11666;DHT22;5889;51.350;6.708;2022-09-20T14:01:56;16.20;99.90
11666;DHT22;5889;51.350;6.708;2022-09-20T14:04:27;16.30;99.90
11666;DHT22;5889;51.350;6.708;2022-09-20T14:06:58;16.50;98.80
11666;DHT22;5889;51.350;6.708;2022-09-20T14:09:27;16.60;98.20
11666;DHT22;5889;51.350;6.708;2022-09-20T14:11:56;16.70;98.80
11666;DHT22;5889;51.350;6.708;2022-09-20T14:14:24;16.90;98.20
11666;DHT22;5889;51.350;6.708;2022-09-20T14:16:53;17.00;96.90
11666;DHT22;5889;51.350;6.708;2022-09-20T14:19:26;17.00;96.70
11666;DHT22;5889;51.350;6.708;2022-09-20T14:21:58;17.20;97.20
11666;DHT22;5889;51.350;6.708;2022-09-20T14:24:30;17.30;97.70
11666;DHT22;5889;51.350;6.708;2022-09-20T14:27:10;17.20;96.40
11666;DHT22;5889;51.350;6.708;2022-09-20T14:29:41;17.20;96.30
11666;DHT22;5889;51.350;6.708;2022-09-20T14:35:16;17.10;96.00
11666;DHT22;5889;51.350;6.708;2022-09-20T14:37:48;17.10;98.10
11666;DHT22;5889;51.350;6.708;2022-09-20T14:40:20;17.40;96.00
11666;DHT22;5889;51.350;6.708;2022-09-20T14:42:49;17.40;96.50
11666;DHT22;5889;51.350;6.708;2022-09-20T14:45:22;17.20;96.60
11666;DHT22;5889;51.350;6.708;2022-09-20T14:48:02;17.10;96.10
11666;DHT22;5889;51.350;6.708;2022-09-20T14:50:30;17.30;95.60
11666;DHT22;5889;51.350;6.708;2022-09-20T14:55:55;17.20;95.00
11666;DHT22;5889;51.350;6.708;2022-09-20T14:58:22;17.20;95.60
11666;DHT22;5889;51.350;6.708;2022-09-20T15:00:52;17.10;95.90
11666;DHT22;5889;51.350;6.708;2022-09-20T15:03:25;17.20;96.10
11666;DHT22;5889;51.350;6.708;2022-09-20T15:05:52;17.10;95.80
11666;DHT22;5889;51.350;6.708;2022-09-20T15:08:21;16.80;95.40
11666;DHT22;5889;51.350;6.708;2022-09-20T15:10:48;16.70;96.30
11666;DHT22;5889;51.350;6.708;2022-09-20T15:13:16;16.60;95.80
11666;DHT22;5889;51.350;6.708;2022-09-20T15:15:44;16.40;97.00
11666;DHT22;5889;51.350;6.708;2022-09-20T15:18:19;16.30;97.10
11666;DHT22;5889;51.350;6.708;2022-09-20T15:20:47;16.10;97.40
11666;DHT22;5889;51.350;6.708;2022-09-20T15:23:14;16.10;98.20
11666;DHT22;5889;51.350;6.708;2022-09-20T15:25:43;16.00;97.60
11666;DHT22;5889;51.350;6.708;2022-09-20T15:28:12;15.90;97.70
11666;DHT22;5889;51.350;6.708;2022-09-20T15:30:42;15.90;97.80
11666;DHT22;5889;51.350;6.708;2022-09-20T15:33:09;16.10;98.50
11666;DHT22;5889;51.350;6.708;2022-09-20T15:35:37;16.10;97.70
11666;DHT22;5889;51.350;6.708;2022-09-20T15:38:04;16.20;98.30
11666;DHT22;5889;51.350;6.708;2022-09-20T15:40:33;16.30;98.70
11666;DHT22;5889;51.350;6.708;2022-09-20T15:43:01;16.40;99.10
11666;DHT22;5889;51.350;6.708;2022-09-20T15:45:29;16.50;99.40
11666;DHT22;5889;51.350;6.708;2022-09-20T15:47:56;16.60;98.10
11666;DHT22;5889;51.350;6.708;2022-09-20T15:50:23;16.50;98.20
11666;DHT22;5889;51.350;6.708;2022-09-20T15:52:50;16.40;98.30
11666;DHT22;5889;51.350;6.708;2022-09-20T15:55:18;16.30;98.50
11666;DHT22;5889;51.350;6.708;2022-09-20T15:57:46;16.30;98.40
11666;DHT22;5889;51.350;6.708;2022-09-20T16:00:15;16.40;98.30
11666;DHT22;5889;51.350;6.708;2022-09-20T16:02:46;16.30;97.80
11666;DHT22;5889;51.350;6.708;2022-09-20T16:05:14;16.40;97.90
11666;DHT22;5889;51.350;6.708;2022-09-20T16:07:41;16.40;98.10
11666;DHT22;5889;51.350;6.708;2022-09-20T16:10:08;16.40;98.20
11666;DHT22;5889;51.350;6.708;2022-09-20T16:12:37;16.40;98.20
11666;DHT22;5889;51.350;6.708;2022-09-20T16:15:06;16.40;99.20
11666;DHT22;5889;51.350;6.708;2022-09-20T16:17:34;16.40;98.50
11666;DHT22;5889;51.350;6.708;2022-09-20T16:20:18;16.40;98.70
11666;DHT22;5889;51.350;6.708;2022-09-20T16:22:45;16.50;98.00
11666;DHT22;5889;51.350;6.708;2022-09-20T16:25:12;16.70;97.70
11666;DHT22;5889;51.350;6.708;2022-09-20T16:27:39;16.80;98.00
11666;DHT22;5889;51.350;6.708;2022-09-20T16:30:07;16.70;97.80
11666;DHT22;5889;51.350;6.708;2022-09-20T16:32:35;16.40;97.40
11666;DHT22;5889;51.350;6.708;2022-09-20T16:35:03;16.20;98.30
11666;DHT22;5889;51.350;6.708;2022-09-20T16:37:32;16.10;98.40
11666;DHT22;5889;51.350;6.708;2022-09-20T16:40:00;16.10;98.70
11666;DHT22;5889;51.350;6.708;2022-09-20T16:42:27;16.00;98.60
11666;DHT22;5889;51.350;6.708;2022-09-20T16:44:54;16.10;99.70
11666;DHT22;5889;51.350;6.708;2022-09-20T16:47:21;16.00;99.40
11666;DHT22;5889;51.350;6.708;2022-09-20T16:49:51;15.80;99.90
11666;DHT22;5889;51.350;6.708;2022-09-20T16:52:18;15.80;99.90
11666;DHT22;5889;51.350;6.708;2022-09-20T16:54:45;15.80;99.90
11666;DHT22;5889;51.350;6.708;2022-09-20T16:57:12;15.80;99.90
11666;DHT22;5889;51.350;6.708;2022-09-20T16:59:40;15.80;99.90
11666;DHT22;5889;51.350;6.708;2022-09-20T17:02:09;15.90;99.90
11666;DHT22;5889;51.350;6.708;2022-09-20T17:04:36;15.90;99.90
11666;DHT22;5889;51.350;6.708;2022-09-20T17:07:05;16.00;99.90
11666;DHT22;5889;51.350;6.708;2022-09-20T17:09:32;16.10;99.90
11666;DHT22;5889;51.350;6.708;2022-09-20T17:11:59;16.20;99.20
11666;DHT22;5889;51.350;6.708;2022-09-20T17:14:33;16.10;99.30
11666;DHT22;5889;51.350;6.708;2022-09-20T17:17:01;15.90;99.40
11666;DHT22;5889;51.350;6.708;2022-09-20T17:19:28;15.70;99.80
11666;DHT22;5889;51.350;6.708;2022-09-20T17:21:55;15.60;99.90